sensor_id;sensor_type;location;lat;lon;timestamp;temperature;humidity
59025;DHT22;44806;48.008;13.666;2024-03-25T00:01:37;4.20;99.90
59025;DHT22;44806;48.008;13.666;2024-03-25T00:04:03;4.20;99.90
59025;DHT22;44806;48.008;13.666;2024-03-25T00:06:30;4.10;99.90
59025;DHT22;44806;48.008;13.666;2024-03-25T00:09:00;4.10;99.90
59025;DHT22;44806;48.008;13.666;2024-03-25T00:11:27;4.20;99.90
59025;DHT22;44806;48.008;13.666;2024-03-25T00:13:53;4.20;99.90
59025;DHT22;44806;48.008;13.666;2024-03-25T00:16:19;4.10;99.90
59025;DHT22;44806;48.008;13.666;2024-03-25T00:18:46;3.90;99.90
59025;DHT22;44806;48.008;13.666;2024-03-25T00:21:13;4.00;99.90
59025;DHT22;44806;48.008;13.666;2024-03-25T00:23:40;3.80;99.90
59025;DHT22;44806;48.008;13.666;2024-03-25T00:26:07;4.00;99.90
59025;DHT22;44806;48.008;13.666;2024-03-25T00:28:34;4.00;99.90
59025;DHT22;44806;48.008;13.666;2024-03-25T00:30:59;3.90;99.90
59025;DHT22;44806;48.008;13.666;2024-03-25T00:33:26;4.00;99.90
59025;DHT22;44806;48.008;13.666;2024-03-25T00:35:52;3.90;99.90
59025;DHT22;44806;48.008;13.666;2024-03-25T00:38:19;3.90;99.90
59025;DHT22;44806;48.008;13.666;2024-03-25T00:40:45;4.00;99.90
59025;DHT22;44806;48.008;13.666;2024-03-25T00:43:13;4.00;99.90
59025;DHT22;44806;48.008;13.666;2024-03-25T00:45:40;4.00;99.90
59025;DHT22;44806;48.008;13.666;2024-03-25T00:48:07;4.00;99.90
59025;DHT22;44806;48.008;13.666;2024-03-25T00:50:32;4.00;99.90
59025;DHT22;44806;48.008;13.666;2024-03-25T00:53:00;3.90;99.90
59025;DHT22;44806;48.008;13.666;2024-03-25T00:55:26;3.90;99.90
59025;DHT22;44806;48.008;13.666;2024-03-25T00:57:53;4.00;99.90
59025;DHT22;44806;48.008;13.666;2024-03-25T01:00:21;4.00;99.90
59025;DHT22;44806;48.008;13.666;2024-03-25T01:02:47;4.10;99.90
59025;DHT22;44806;48.008;13.666;2024-03-25T01:05:13;4.10;99.90
59025;DHT22;44806;48.008;13.666;2024-03-25T01:07:40;4.00;99.90
59025;DHT22;44806;48.008;13.666;2024-03-25T01:10:06;3.90;99.90
59025;DHT22;44806;48.008;13.666;2024-03-25T01:12:33;3.90;99.90
59025;DHT22;44806;48.008;13.666;2024-03-25T01:14:59;4.00;99.90
59025;DHT22;44806;48.008;13.666;2024-03-25T01:17:29;4.00;99.90
59025;DHT22;44806;48.008;13.666;2024-03-25T01:19:54;4.00;99.90
59025;DHT22;44806;48.008;13.666;2024-03-25T01:22:21;4.00;99.90
59025;DHT22;44806;48.008;13.666;2024-03-25T01:24:47;4.00;99.90
59025;DHT22;44806;48.008;13.666;2024-03-25T01:27:14;4.00;99.90
59025;DHT22;44806;48.008;13.666;2024-03-25T01:29:39;4.10;99.90
59025;DHT22;44806;48.008;13.666;2024-03-25T01:32:06;4.10;99.90
59025;DHT22;44806;48.008;13.666;2024-03-25T01:34:33;4.10;99.90
59025;DHT22;44806;48.008;13.666;2024-03-25T01:37:00;4.10;99.90
59025;DHT22;44806;48.008;13.666;2024-03-25T01:39:27;4.20;99.90
59025;DHT22;44806;48.008;13.666;2024-03-25T01:41:53;4.20;99.90
59025;DHT22;44806;48.008;13.666;2024-03-25T01:44:19;4.20;99.90
59025;DHT22;44806;48.008;13.666;2024-03-25T01:46:46;4.20;99.90
59025;DHT22;44806;48.008;13.666;2024-03-25T01:49:12;4.30;99.90
59025;DHT22;44806;48.008;13.666;2024-03-25T01:51:41;4.40;99.90
59025;DHT22;44806;48.008;13.666;2024-03-25T01:54:07;4.40;99.90
59025;DHT22;44806;48.008;13.666;2024-03-25T01:56:34;4.40;99.90
59025;DHT22;44806;48.008;13.666;2024-03-25T01:59:01;4.50;99.90
59025;DHT22;44806;48.008;13.666;2024-03-25T02:01:28;4.50;99.90
59025;DHT22;44806;48.008;13.666;2024-03-25T02:03:54;4.50;99.90
59025;DHT22;44806;48.008;13.666;2024-03-25T02:06:22;4.60;99.90
59025;DHT22;44806;48.008;13.666;2024-03-25T02:08:50;4.50;99.90
59025;DHT22;44806;48.008;13.666;2024-03-25T02:11:18;4.50;99.90
59025;DHT22;44806;48.008;13.666;2024-03-25T02:13:44;4.50;99.90
59025;DHT22;44806;48.008;13.666;2024-03-25T02:16:10;4.50;99.90
59025;DHT22;44806;48.008;13.666;2024-03-25T02:18:36;4.60;99.90
59025;DHT22;44806;48.008;13.666;2024-03-25T02:21:03;4.60;99.90
59025;DHT22;44806;48.008;13.666;2024-03-25T02:23:30;4.60;99.90
59025;DHT22;44806;48.008;13.666;2024-03-25T02:25:59;4.60;99.90
59025;DHT22;44806;48.008;13.666;2024-03-25T02:28:25;4.60;99.90
59025;DHT22;44806;48.008;13.666;2024-03-25T02:30:51;4.70;99.90
59025;DHT22;44806;48.008;13.666;2024-03-25T02:33:17;4.70;99.90
59025;DHT22;44806;48.008;13.666;2024-03-25T02:35:44;4.70;99.90
59025;DHT22;44806;48.008;13.666;2024-03-25T02:38:10;4.80;99.90
59025;DHT22;44806;48.008;13.666;2024-03-25T02:40:37;4.80;99.90
59025;DHT22;44806;48.008;13.666;2024-03-25T02:43:04;4.70;99.90
59025;DHT22;44806;48.008;13.666;2024-03-25T02:45:32;4.80;99.90
59025;DHT22;44806;48.008;13.666;2024-03-25T02:47:58;4.80;99.90
59025;DHT22;44806;48.008;13.666;2024-03-25T02:50:25;4.70;99.90
59025;DHT22;44806;48.008;13.666;2024-03-25T02:52:51;4.70;99.90
59025;DHT22;44806;48.008;13.666;2024-03-25T02:55:18;4.60;99.90
59025;DHT22;44806;48.008;13.666;2024-03-25T02:57:44;4.80;99.90
59025;DHT22;44806;48.008;13.666;2024-03-25T03:00:13;4.80;99.90
59025;DHT22;44806;48.008;13.666;2024-03-25T03:02:39;4.80;99.90
59025;DHT22;44806;48.008;13.666;2024-03-25T03:05:06;4.80;99.90
59025;DHT22;44806;48.008;13.666;2024-03-25T03:07:32;4.80;99.90
59025;DHT22;44806;48.008;13.666;2024-03-25T03:09:59;4.80;99.90
59025;DHT22;44806;48.008;13.666;2024-03-25T03:12:24;4.80;99.90
59025;DHT22;44806;48.008;13.666;2024-03-25T03:14:51;4.90;99.90
59025;DHT22;44806;48.008;13.666;2024-03-25T03:17:18;4.90;99.90
59025;DHT22;44806;48.008;13.666;2024-03-25T03:19:45;4.90;99.90
59025;DHT22;44806;48.008;13.666;2024-03-25T03:22:11;4.90;99.90
59025;DHT22;44806;48.008;13.666;2024-03-25T03:24:38;4.90;99.90
59025;DHT22;44806;48.008;13.666;2024-03-25T03:27:04;4.80;99.90
59025;DHT22;44806;48.008;13.666;2024-03-25T03:29:30;4.80;99.90
59025;DHT22;44806;48.008;13.666;2024-03-25T03:34:45;4.80;99.90
59025;DHT22;44806;48.008;13.666;2024-03-25T03:37:11;4.90;99.90
59025;DHT22;44806;48.008;13.666;2024-03-25T03:39:37;4.80;99.90
59025;DHT22;44806;48.008;13.666;2024-03-25T03:42:04;4.80;99.90
59025;DHT22;44806;48.008;13.666;2024-03-25T03:44:30;4.80;99.90
59025;DHT22;44806;48.008;13.666;2024-03-25T03:46:57;4.80;99.90
59025;DHT22;44806;48.008;13.666;2024-03-25T03:49:22;4.70;99.90
59025;DHT22;44806;48.008;13.666;2024-03-25T03:51:51;4.70;99.90
59025;DHT22;44806;48.008;13.666;2024-03-25T03:54:16;4.70;99.90
59025;DHT22;44806;48.008;13.666;2024-03-25T03:56:43;4.70;99.90
59025;DHT22;44806;48.008;13.666;2024-03-25T03:59:09;4.70;99.90
59025;DHT22;44806;48.008;13.666;2024-03-25T04:01:36;4.60;99.90
59025;DHT22;44806;48.008;13.666;2024-03-25T04:04:01;4.70;99.90
59025;DHT22;44806;48.008;13.666;2024-03-25T04:06:28;4.60;99.90
59025;DHT22;44806;48.008;13.666;2024-03-25T04:08:55;4.70;99.90
59025;DHT22;44806;48.008;13.666;2024-03-25T04:11:22;4.70;99.90
59025;DHT22;44806;48.008;13.666;2024-03-25T04:13:48;4.70;99.90
59025;DHT22;44806;48.008;13.666;2024-03-25T04:16:15;4.70;99.90
59025;DHT22;44806;48.008;13.666;2024-03-25T04:18:41;4.70;99.90
59025;DHT22;44806;48.008;13.666;2024-03-25T04:21:11;4.70;99.90
59025;DHT22;44806;48.008;13.666;2024-03-25T04:23:37;4.60;99.90
59025;DHT22;44806;48.008;13.666;2024-03-25T04:26:06;4.60;99.90
59025;DHT22;44806;48.008;13.666;2024-03-25T04:28:33;4.60;99.90
59025;DHT22;44806;48.008;13.666;2024-03-25T04:31:00;4.50;99.90
59025;DHT22;44806;48.008;13.666;2024-03-25T04:33:25;4.40;99.90
59025;DHT22;44806;48.008;13.666;2024-03-25T04:35:52;4.50;99.90
59025;DHT22;44806;48.008;13.666;2024-03-25T04:38:18;4.50;99.90
59025;DHT22;44806;48.008;13.666;2024-03-25T04:40:44;4.50;99.90
59025;DHT22;44806;48.008;13.666;2024-03-25T04:43:12;4.50;99.90
59025;DHT22;44806;48.008;13.666;2024-03-25T04:45:37;4.50;99.90
59025;DHT22;44806;48.008;13.666;2024-03-25T04:48:03;4.50;99.90
59025;DHT22;44806;48.008;13.666;2024-03-25T04:50:30;4.50;99.90
59025;DHT22;44806;48.008;13.666;2024-03-25T04:52:56;4.50;99.90
59025;DHT22;44806;48.008;13.666;2024-03-25T04:55:22;4.50;99.90
59025;DHT22;44806;48.008;13.666;2024-03-25T04:57:48;4.50;99.90
59025;DHT22;44806;48.008;13.666;2024-03-25T05:00:15;4.50;99.90
59025;DHT22;44806;48.008;13.666;2024-03-25T05:02:41;4.60;99.90
59025;DHT22;44806;48.008;13.666;2024-03-25T05:05:07;4.50;99.90
59025;DHT22;44806;48.008;13.666;2024-03-25T05:07:33;4.60;99.90
59025;DHT22;44806;48.008;13.666;2024-03-25T05:09:59;4.50;99.90
59025;DHT22;44806;48.008;13.666;2024-03-25T05:12:25;4.60;99.90
59025;DHT22;44806;48.008;13.666;2024-03-25T05:14:51;4.60;99.90
59025;DHT22;44806;48.008;13.666;2024-03-25T05:17:18;4.60;99.90
59025;DHT22;44806;48.008;13.666;2024-03-25T05:19:44;4.60;99.90
59025;DHT22;44806;48.008;13.666;2024-03-25T05:22:09;4.60;99.90
59025;DHT22;44806;48.008;13.666;2024-03-25T05:24:36;4.60;99.90
59025;DHT22;44806;48.008;13.666;2024-03-25T05:27:01;4.60;99.90
59025;DHT22;44806;48.008;13.666;2024-03-25T05:29:27;4.60;99.90
59025;DHT22;44806;48.008;13.666;2024-03-25T05:31:57;4.70;99.90
59025;DHT22;44806;48.008;13.666;2024-03-25T05:34:24;4.70;99.90
59025;DHT22;44806;48.008;13.666;2024-03-25T05:36:50;4.60;99.90
59025;DHT22;44806;48.008;13.666;2024-03-25T05:39:16;4.70;99.90
59025;DHT22;44806;48.008;13.666;2024-03-25T05:41:42;4.60;99.90
59025;DHT22;44806;48.008;13.666;2024-03-25T05:44:08;4.60;99.90
59025;DHT22;44806;48.008;13.666;2024-03-25T05:46:34;4.60;99.90
59025;DHT22;44806;48.008;13.666;2024-03-25T05:49:01;4.70;99.90
59025;DHT22;44806;48.008;13.666;2024-03-25T05:51:28;4.70;99.90
59025;DHT22;44806;48.008;13.666;2024-03-25T05:53:54;4.80;99.90
59025;DHT22;44806;48.008;13.666;2024-03-25T05:56:20;4.90;99.90
59025;DHT22;44806;48.008;13.666;2024-03-25T05:58:46;4.90;99.90
59025;DHT22;44806;48.008;13.666;2024-03-25T06:01:12;5.00;99.90
59025;DHT22;44806;48.008;13.666;2024-03-25T06:03:37;5.10;99.90
59025;DHT22;44806;48.008;13.666;2024-03-25T06:06:03;5.00;99.90
59025;DHT22;44806;48.008;13.666;2024-03-25T06:08:31;5.10;99.90
59025;DHT22;44806;48.008;13.666;2024-03-25T06:11:00;5.10;99.90
59025;DHT22;44806;48.008;13.666;2024-03-25T06:13:26;5.10;99.90
59025;DHT22;44806;48.008;13.666;2024-03-25T06:15:52;5.20;99.90
59025;DHT22;44806;48.008;13.666;2024-03-25T06:18:18;5.20;99.90
59025;DHT22;44806;48.008;13.666;2024-03-25T06:20:44;5.30;99.90
59025;DHT22;44806;48.008;13.666;2024-03-25T06:23:09;5.30;99.90
59025;DHT22;44806;48.008;13.666;2024-03-25T06:25:37;5.40;99.90
59025;DHT22;44806;48.008;13.666;2024-03-25T06:28:03;5.40;99.90
59025;DHT22;44806;48.008;13.666;2024-03-25T06:30:29;5.40;99.90
59025;DHT22;44806;48.008;13.666;2024-03-25T06:33:13;5.50;99.90
59025;DHT22;44806;48.008;13.666;2024-03-25T06:35:57;5.40;99.90
59025;DHT22;44806;48.008;13.666;2024-03-25T06:38:23;5.50;99.90
59025;DHT22;44806;48.008;13.666;2024-03-25T06:40:50;5.50;99.90
59025;DHT22;44806;48.008;13.666;2024-03-25T06:43:16;5.60;99.90
59025;DHT22;44806;48.008;13.666;2024-03-25T06:45:42;5.60;99.90
59025;DHT22;44806;48.008;13.666;2024-03-25T06:48:08;5.70;99.90
59025;DHT22;44806;48.008;13.666;2024-03-25T06:50:34;5.70;99.90
59025;DHT22;44806;48.008;13.666;2024-03-25T06:53:00;5.80;99.90
59025;DHT22;44806;48.008;13.666;2024-03-25T06:55:26;5.90;99.90
59025;DHT22;44806;48.008;13.666;2024-03-25T06:57:53;5.90;99.90
59025;DHT22;44806;48.008;13.666;2024-03-25T07:00:19;5.90;99.90
59025;DHT22;44806;48.008;13.666;2024-03-25T07:02:45;5.90;99.90
59025;DHT22;44806;48.008;13.666;2024-03-25T07:05:11;5.90;99.90
59025;DHT22;44806;48.008;13.666;2024-03-25T07:07:37;6.00;99.90
59025;DHT22;44806;48.008;13.666;2024-03-25T07:10:02;6.00;99.90
59025;DHT22;44806;48.008;13.666;2024-03-25T07:12:28;6.00;99.90
59025;DHT22;44806;48.008;13.666;2024-03-25T07:14:56;6.00;99.90
59025;DHT22;44806;48.008;13.666;2024-03-25T07:17:21;6.10;99.90
59025;DHT22;44806;48.008;13.666;2024-03-25T07:19:47;6.10;99.90
59025;DHT22;44806;48.008;13.666;2024-03-25T07:22:13;6.10;99.90
59025;DHT22;44806;48.008;13.666;2024-03-25T07:24:39;6.00;99.90
59025;DHT22;44806;48.008;13.666;2024-03-25T07:27:05;6.10;99.90
59025;DHT22;44806;48.008;13.666;2024-03-25T07:29:31;6.20;99.90
59025;DHT22;44806;48.008;13.666;2024-03-25T07:31:58;6.20;99.90
59025;DHT22;44806;48.008;13.666;2024-03-25T07:34:24;6.40;99.90
59025;DHT22;44806;48.008;13.666;2024-03-25T07:36:50;6.40;99.90
59025;DHT22;44806;48.008;13.666;2024-03-25T07:39:16;6.40;99.90
59025;DHT22;44806;48.008;13.666;2024-03-25T07:41:41;6.50;99.90
59025;DHT22;44806;48.008;13.666;2024-03-25T07:44:07;6.50;99.90
59025;DHT22;44806;48.008;13.666;2024-03-25T07:46:33;6.40;99.90
59025;DHT22;44806;48.008;13.666;2024-03-25T07:49:00;6.40;99.90
59025;DHT22;44806;48.008;13.666;2024-03-25T07:51:26;6.40;99.90
59025;DHT22;44806;48.008;13.666;2024-03-25T07:53:52;6.50;99.90
59025;DHT22;44806;48.008;13.666;2024-03-25T07:56:17;6.60;99.90
59025;DHT22;44806;48.008;13.666;2024-03-25T07:58:43;6.60;99.90
59025;DHT22;44806;48.008;13.666;2024-03-25T08:01:09;6.60;99.90
59025;DHT22;44806;48.008;13.666;2024-03-25T08:03:35;6.60;99.90
59025;DHT22;44806;48.008;13.666;2024-03-25T08:06:02;6.40;99.90
59025;DHT22;44806;48.008;13.666;2024-03-25T08:08:28;6.40;99.90
59025;DHT22;44806;48.008;13.666;2024-03-25T08:10:54;6.40;99.90
59025;DHT22;44806;48.008;13.666;2024-03-25T08:13:20;6.20;99.90
59025;DHT22;44806;48.008;13.666;2024-03-25T08:15:46;6.20;99.90
59025;DHT22;44806;48.008;13.666;2024-03-25T08:18:12;6.20;99.90
59025;DHT22;44806;48.008;13.666;2024-03-25T08:20:38;6.20;99.90
59025;DHT22;44806;48.008;13.666;2024-03-25T08:23:05;6.00;99.90
59025;DHT22;44806;48.008;13.666;2024-03-25T08:25:31;6.00;99.90
59025;DHT22;44806;48.008;13.666;2024-03-25T08:27:57;6.00;99.90
59025;DHT22;44806;48.008;13.666;2024-03-25T08:30:23;6.10;99.90
59025;DHT22;44806;48.008;13.666;2024-03-25T08:32:49;6.20;99.90
59025;DHT22;44806;48.008;13.666;2024-03-25T08:35:15;6.20;99.90
59025;DHT22;44806;48.008;13.666;2024-03-25T08:37:40;6.30;99.90
59025;DHT22;44806;48.008;13.666;2024-03-25T08:40:08;6.30;99.90
59025;DHT22;44806;48.008;13.666;2024-03-25T08:42:34;6.40;99.90
59025;DHT22;44806;48.008;13.666;2024-03-25T08:45:00;6.40;99.90
59025;DHT22;44806;48.008;13.666;2024-03-25T08:47:26;6.50;99.90
59025;DHT22;44806;48.008;13.666;2024-03-25T08:49:52;6.30;99.90
59025;DHT22;44806;48.008;13.666;2024-03-25T08:52:17;6.30;99.90
59025;DHT22;44806;48.008;13.666;2024-03-25T08:54:43;6.30;99.90
59025;DHT22;44806;48.008;13.666;2024-03-25T08:57:10;6.40;99.90
59025;DHT22;44806;48.008;13.666;2024-03-25T08:59:36;6.50;99.90
59025;DHT22;44806;48.008;13.666;2024-03-25T09:02:02;6.70;99.90
59025;DHT22;44806;48.008;13.666;2024-03-25T09:04:28;6.70;99.90
59025;DHT22;44806;48.008;13.666;2024-03-25T09:06:54;6.70;99.90
59025;DHT22;44806;48.008;13.666;2024-03-25T09:09:20;6.80;99.90
59025;DHT22;44806;48.008;13.666;2024-03-25T09:12:04;6.70;99.90
59025;DHT22;44806;48.008;13.666;2024-03-25T09:14:32;6.80;99.90
59025;DHT22;44806;48.008;13.666;2024-03-25T09:16:58;7.00;99.90
59025;DHT22;44806;48.008;13.666;2024-03-25T09:19:24;7.20;99.90
59025;DHT22;44806;48.008;13.666;2024-03-25T09:21:50;7.40;99.90
59025;DHT22;44806;48.008;13.666;2024-03-25T09:24:16;7.50;99.90
59025;DHT22;44806;48.008;13.666;2024-03-25T09:26:42;7.60;99.90
59025;DHT22;44806;48.008;13.666;2024-03-25T09:29:08;7.80;99.90
59025;DHT22;44806;48.008;13.666;2024-03-25T09:31:35;8.00;99.90
59025;DHT22;44806;48.008;13.666;2024-03-25T09:34:01;8.10;99.90
59025;DHT22;44806;48.008;13.666;2024-03-25T09:36:27;8.10;99.90
59025;DHT22;44806;48.008;13.666;2024-03-25T09:38:52;8.20;99.90
59025;DHT22;44806;48.008;13.666;2024-03-25T09:41:18;8.20;99.90
59025;DHT22;44806;48.008;13.666;2024-03-25T09:43:44;8.30;99.90
59025;DHT22;44806;48.008;13.666;2024-03-25T09:46:13;8.20;99.90
59025;DHT22;44806;48.008;13.666;2024-03-25T09:48:40;8.20;99.90
59025;DHT22;44806;48.008;13.666;2024-03-25T09:51:06;8.20;99.90
59025;DHT22;44806;48.008;13.666;2024-03-25T09:53:33;8.30;99.90
59025;DHT22;44806;48.008;13.666;2024-03-25T09:55:59;8.40;99.90
59025;DHT22;44806;48.008;13.666;2024-03-25T09:58:25;8.40;99.90
59025;DHT22;44806;48.008;13.666;2024-03-25T10:00:51;8.60;99.90
59025;DHT22;44806;48.008;13.666;2024-03-25T10:03:17;8.60;99.90
59025;DHT22;44806;48.008;13.666;2024-03-25T10:05:44;8.70;99.90
59025;DHT22;44806;48.008;13.666;2024-03-25T10:08:10;9.00;99.90
59025;DHT22;44806;48.008;13.666;2024-03-25T10:10:36;9.20;99.90
59025;DHT22;44806;48.008;13.666;2024-03-25T10:13:02;9.40;99.90
59025;DHT22;44806;48.008;13.666;2024-03-25T10:15:29;9.30;99.90
59025;DHT22;44806;48.008;13.666;2024-03-25T10:17:54;9.50;99.90
59025;DHT22;44806;48.008;13.666;2024-03-25T10:20:20;9.50;99.90
59025;DHT22;44806;48.008;13.666;2024-03-25T10:22:48;9.50;99.00
59025;DHT22;44806;48.008;13.666;2024-03-25T10:25:23;9.30;97.90
59025;DHT22;44806;48.008;13.666;2024-03-25T10:27:52;9.10;96.10
59025;DHT22;44806;48.008;13.666;2024-03-25T10:30:19;9.00;96.70
59025;DHT22;44806;48.008;13.666;2024-03-25T10:32:45;8.70;96.60
59025;DHT22;44806;48.008;13.666;2024-03-25T10:35:11;8.90;98.10
59025;DHT22;44806;48.008;13.666;2024-03-25T10:37:38;8.90;97.80
59025;DHT22;44806;48.008;13.666;2024-03-25T10:40:06;9.00;99.10
59025;DHT22;44806;48.008;13.666;2024-03-25T10:42:32;9.20;97.90
59025;DHT22;44806;48.008;13.666;2024-03-25T10:45:00;9.20;96.40
59025;DHT22;44806;48.008;13.666;2024-03-25T10:47:27;9.30;98.60
59025;DHT22;44806;48.008;13.666;2024-03-25T10:49:55;9.40;97.50
59025;DHT22;44806;48.008;13.666;2024-03-25T10:52:22;9.30;98.10
59025;DHT22;44806;48.008;13.666;2024-03-25T10:54:49;9.20;98.20
59025;DHT22;44806;48.008;13.666;2024-03-25T10:57:17;9.00;97.00
59025;DHT22;44806;48.008;13.666;2024-03-25T10:59:43;9.10;97.30
59025;DHT22;44806;48.008;13.666;2024-03-25T11:02:08;9.00;97.00
59025;DHT22;44806;48.008;13.666;2024-03-25T11:04:34;8.90;98.10
59025;DHT22;44806;48.008;13.666;2024-03-25T11:07:07;8.60;93.80
59025;DHT22;44806;48.008;13.666;2024-03-25T11:09:33;8.70;95.90
59025;DHT22;44806;48.008;13.666;2024-03-25T11:11:59;8.70;94.00
59025;DHT22;44806;48.008;13.666;2024-03-25T11:14:27;8.70;95.00
59025;DHT22;44806;48.008;13.666;2024-03-25T11:16:53;8.80;95.90
59025;DHT22;44806;48.008;13.666;2024-03-25T11:19:24;9.00;96.30
59025;DHT22;44806;48.008;13.666;2024-03-25T11:21:50;9.20;96.70
59025;DHT22;44806;48.008;13.666;2024-03-25T11:24:25;9.20;93.90
59025;DHT22;44806;48.008;13.666;2024-03-25T11:26:52;9.30;95.20
59025;DHT22;44806;48.008;13.666;2024-03-25T11:29:18;9.40;93.80
59025;DHT22;44806;48.008;13.666;2024-03-25T11:31:46;9.60;94.00
59025;DHT22;44806;48.008;13.666;2024-03-25T11:34:14;9.80;94.80
59025;DHT22;44806;48.008;13.666;2024-03-25T11:36:40;10.20;96.50
59025;DHT22;44806;48.008;13.666;2024-03-25T11:39:06;10.20;92.00
59025;DHT22;44806;48.008;13.666;2024-03-25T11:41:32;10.40;94.30
59025;DHT22;44806;48.008;13.666;2024-03-25T11:43:58;10.40;91.40
59025;DHT22;44806;48.008;13.666;2024-03-25T11:46:24;10.50;91.90
59025;DHT22;44806;48.008;13.666;2024-03-25T11:48:52;10.50;92.00
59025;DHT22;44806;48.008;13.666;2024-03-25T11:51:19;10.50;90.90
59025;DHT22;44806;48.008;13.666;2024-03-25T11:53:44;10.50;91.00
59025;DHT22;44806;48.008;13.666;2024-03-25T11:56:11;10.10;86.80
59025;DHT22;44806;48.008;13.666;2024-03-25T11:58:37;10.00;89.90
59025;DHT22;44806;48.008;13.666;2024-03-25T12:01:03;9.90;91.50
59025;DHT22;44806;48.008;13.666;2024-03-25T12:03:29;9.90;90.80
59025;DHT22;44806;48.008;13.666;2024-03-25T12:05:56;9.90;91.10
59025;DHT22;44806;48.008;13.666;2024-03-25T12:08:22;10.00;91.60
59025;DHT22;44806;48.008;13.666;2024-03-25T12:10:49;10.20;91.20
59025;DHT22;44806;48.008;13.666;2024-03-25T12:13:33;10.40;92.00
59025;DHT22;44806;48.008;13.666;2024-03-25T12:15:59;10.70;90.90
59025;DHT22;44806;48.008;13.666;2024-03-25T12:18:25;10.90;90.60
59025;DHT22;44806;48.008;13.666;2024-03-25T12:20:51;11.00;86.00
59025;DHT22;44806;48.008;13.666;2024-03-25T12:23:18;10.80;82.90
59025;DHT22;44806;48.008;13.666;2024-03-25T12:25:47;10.50;84.50
59025;DHT22;44806;48.008;13.666;2024-03-25T12:28:13;10.50;81.00
59025;DHT22;44806;48.008;13.666;2024-03-25T12:30:41;10.60;82.50
59025;DHT22;44806;48.008;13.666;2024-03-25T12:33:14;10.60;86.80
59025;DHT22;44806;48.008;13.666;2024-03-25T12:35:40;10.60;84.60
59025;DHT22;44806;48.008;13.666;2024-03-25T12:38:05;10.60;84.50
59025;DHT22;44806;48.008;13.666;2024-03-25T12:40:33;10.60;80.90
59025;DHT22;44806;48.008;13.666;2024-03-25T12:42:58;10.60;81.00
59025;DHT22;44806;48.008;13.666;2024-03-25T12:45:25;10.70;79.60
59025;DHT22;44806;48.008;13.666;2024-03-25T12:47:50;10.70;79.50
59025;DHT22;44806;48.008;13.666;2024-03-25T12:50:17;10.80;79.70
59025;DHT22;44806;48.008;13.666;2024-03-25T12:52:42;10.70;77.90
59025;DHT22;44806;48.008;13.666;2024-03-25T12:55:08;10.60;82.10
59025;DHT22;44806;48.008;13.666;2024-03-25T12:57:36;10.90;81.40
59025;DHT22;44806;48.008;13.666;2024-03-25T13:00:02;10.90;79.00
59025;DHT22;44806;48.008;13.666;2024-03-25T13:02:28;11.20;80.30
59025;DHT22;44806;48.008;13.666;2024-03-25T13:04:54;11.20;79.50
59025;DHT22;44806;48.008;13.666;2024-03-25T13:07:20;11.50;77.40
59025;DHT22;44806;48.008;13.666;2024-03-25T13:09:46;11.50;75.00
59025;DHT22;44806;48.008;13.666;2024-03-25T13:12:12;11.60;71.70
59025;DHT22;44806;48.008;13.666;2024-03-25T13:14:39;11.10;73.10
59025;DHT22;44806;48.008;13.666;2024-03-25T13:17:05;11.40;76.80
59025;DHT22;44806;48.008;13.666;2024-03-25T13:19:31;11.60;72.70
59025;DHT22;44806;48.008;13.666;2024-03-25T13:21:57;11.70;71.10
59025;DHT22;44806;48.008;13.666;2024-03-25T13:24:23;11.90;75.80
59025;DHT22;44806;48.008;13.666;2024-03-25T13:26:49;12.10;76.80
59025;DHT22;44806;48.008;13.666;2024-03-25T13:29:15;12.10;75.20
59025;DHT22;44806;48.008;13.666;2024-03-25T13:31:42;11.80;69.20
59025;DHT22;44806;48.008;13.666;2024-03-25T13:34:08;12.00;71.60
59025;DHT22;44806;48.008;13.666;2024-03-25T13:36:33;11.90;68.70
59025;DHT22;44806;48.008;13.666;2024-03-25T13:38:59;12.00;73.50
59025;DHT22;44806;48.008;13.666;2024-03-25T13:41:25;12.10;74.00
59025;DHT22;44806;48.008;13.666;2024-03-25T13:43:51;12.20;74.00
59025;DHT22;44806;48.008;13.666;2024-03-25T13:46:17;12.20;73.10
59025;DHT22;44806;48.008;13.666;2024-03-25T13:48:44;12.20;70.30
59025;DHT22;44806;48.008;13.666;2024-03-25T13:51:10;12.00;65.60
59025;DHT22;44806;48.008;13.666;2024-03-25T13:53:36;11.70;63.70
59025;DHT22;44806;48.008;13.666;2024-03-25T13:56:02;11.70;69.00
59025;DHT22;44806;48.008;13.666;2024-03-25T13:58:28;11.80;67.40
59025;DHT22;44806;48.008;13.666;2024-03-25T14:00:53;11.80;67.40
59025;DHT22;44806;48.008;13.666;2024-03-25T14:03:19;12.00;73.00
59025;DHT22;44806;48.008;13.666;2024-03-25T14:05:47;12.10;70.90
59025;DHT22;44806;48.008;13.666;2024-03-25T14:08:12;12.00;67.20
59025;DHT22;44806;48.008;13.666;2024-03-25T14:10:38;11.80;64.40
59025;DHT22;44806;48.008;13.666;2024-03-25T14:13:04;11.80;66.80
59025;DHT22;44806;48.008;13.666;2024-03-25T14:15:30;11.50;64.20
59025;DHT22;44806;48.008;13.666;2024-03-25T14:17:57;11.40;67.90
59025;DHT22;44806;48.008;13.666;2024-03-25T14:20:22;11.50;68.70
59025;DHT22;44806;48.008;13.666;2024-03-25T14:22:50;11.60;68.60
59025;DHT22;44806;48.008;13.666;2024-03-25T14:25:15;11.80;67.90
59025;DHT22;44806;48.008;13.666;2024-03-25T14:27:41;11.90;66.70
59025;DHT22;44806;48.008;13.666;2024-03-25T14:30:07;12.00;69.40
59025;DHT22;44806;48.008;13.666;2024-03-25T14:32:34;12.00;72.20
59025;DHT22;44806;48.008;13.666;2024-03-25T14:35:00;12.10;68.40
59025;DHT22;44806;48.008;13.666;2024-03-25T14:37:26;12.20;68.20
59025;DHT22;44806;48.008;13.666;2024-03-25T14:39:53;12.40;68.40
59025;DHT22;44806;48.008;13.666;2024-03-25T14:42:19;12.50;70.80
59025;DHT22;44806;48.008;13.666;2024-03-25T14:44:45;12.60;67.00
59025;DHT22;44806;48.008;13.666;2024-03-25T14:47:11;12.70;68.00
59025;DHT22;44806;48.008;13.666;2024-03-25T14:49:37;12.60;69.50
59025;DHT22;44806;48.008;13.666;2024-03-25T14:52:03;12.70;64.00
59025;DHT22;44806;48.008;13.666;2024-03-25T14:54:32;12.80;65.90
59025;DHT22;44806;48.008;13.666;2024-03-25T14:57:00;12.80;66.10
59025;DHT22;44806;48.008;13.666;2024-03-25T14:59:26;12.90;66.60
59025;DHT22;44806;48.008;13.666;2024-03-25T15:01:52;13.00;65.50
59025;DHT22;44806;48.008;13.666;2024-03-25T15:04:18;13.10;66.00
59025;DHT22;44806;48.008;13.666;2024-03-25T15:06:44;13.10;66.20
59025;DHT22;44806;48.008;13.666;2024-03-25T15:09:09;13.20;63.80
59025;DHT22;44806;48.008;13.666;2024-03-25T15:11:35;13.10;63.20
59025;DHT22;44806;48.008;13.666;2024-03-25T15:14:02;13.00;60.40
59025;DHT22;44806;48.008;13.666;2024-03-25T15:16:28;12.80;62.70
59025;DHT22;44806;48.008;13.666;2024-03-25T15:18:54;13.10;67.90
59025;DHT22;44806;48.008;13.666;2024-03-25T15:21:20;13.10;67.40
59025;DHT22;44806;48.008;13.666;2024-03-25T15:23:46;13.20;72.30
59025;DHT22;44806;48.008;13.666;2024-03-25T15:26:12;13.20;71.90